Time;durP1;ratioP1;P1;durP2;ratioP2;P2;SDS_P1;SDS_P2;PMS_P1;PMS_P2;Temp;Humidity;BMP_temperature;BMP_pressure;BME280_temperature;BME280_humidity;BME280_pressure;Samples;Min_cycle;Max_cycle;Signal;HPM_P1;HPM_P2
2021/09/26 00:01:32;;;;;;;21.27;19.87;;;;;;;;;;5073954;28;20393;-91
2021/09/26 00:03:59;;;;;;;20.73;19.67;;;;;;;;;;5074929;28;20829;-91
2021/09/26 00:06:28;;;;;;;20.17;18.97;;;;;;;;;;5074127;28;20434;-91
2021/09/26 00:08:56;;;;;;;20.10;19.07;;;;;;;;;;5073705;28;20915;-91
2021/09/26 00:11:23;;;;;;;20.90;19.70;;;;;;;;;;5073968;28;20887;-91
2021/09/26 00:13:51;;;;;;;20.67;19.47;;;;;;;;;;5056312;28;20437;-91
2021/09/26 00:16:19;;;;;;;20.53;19.40;;;;;;;;;;5073999;28;20422;-91
2021/09/26 00:18:46;;;;;;;20.67;19.57;;;;;;;;;;5056555;28;20981;-92
2021/09/26 00:21:14;;;;;;;19.90;18.90;;;;;;;;;;5074672;28;20921;-91
2021/09/26 00:23:43;;;;;;;20.27;19.13;;;;;;;;;;5074064;28;20452;-92
2021/09/26 00:26:10;;;;;;;20.23;19.23;;;;;;;;;;5073924;28;20442;-91
2021/09/26 00:28:37;;;;;;;19.67;18.73;;;;;;;;;;5056276;28;20487;-91
2021/09/26 00:31:05;;;;;;;20.50;19.40;;;;;;;;;;5075038;28;20453;-91
2021/09/26 00:33:33;;;;;;;20.50;19.30;;;;;;;;;;5073556;28;20426;-92
2021/09/26 00:36:00;;;;;;;21.20;19.70;;;;;;;;;;5074425;28;20455;-92
2021/09/26 00:38:28;;;;;;;19.70;18.70;;;;;;;;;;5055782;28;20485;-92
2021/09/26 00:40:56;;;;;;;21.13;19.83;;;;;;;;;;5077212;28;20457;-91
2021/09/26 00:43:24;;;;;;;20.23;19.10;;;;;;;;;;5059568;28;20942;-91
2021/09/26 00:45:51;;;;;;;20.03;18.93;;;;;;;;;;5077874;28;20794;-91
2021/09/26 00:48:19;;;;;;;20.90;19.70;;;;;;;;;;5077289;28;20444;-91
2021/09/26 00:50:46;;;;;;;20.77;19.50;;;;;;;;;;5077169;28;20437;-91
2021/09/26 00:53:13;;;;;;;20.93;19.47;;;;;;;;;;5077265;28;20416;-92
2021/09/26 00:55:41;;;;;;;20.90;19.77;;;;;;;;;;5077257;28;20913;-92
2021/09/26 00:58:10;;;;;;;20.50;19.47;;;;;;;;;;5077028;28;20453;-91
2021/09/26 01:00:37;;;;;;;20.07;18.97;;;;;;;;;;5076691;28;20445;-91
2021/09/26 01:03:04;;;;;;;21.10;19.90;;;;;;;;;;5077338;28;20468;-91
2021/09/26 01:05:32;;;;;;;20.37;19.23;;;;;;;;;;5059384;28;20497;-91
2021/09/26 01:08:05;;;;;;;20.80;19.70;;;;;;;;;;5077018;28;20892;-90
2021/09/26 01:10:36;;;;;;;19.97;18.97;;;;;;;;;;5077033;28;20430;-92
2021/09/26 01:13:07;;;;;;;20.30;19.10;;;;;;;;;;5076901;28;20461;-91
2021/09/26 01:15:45;;;;;;;19.93;18.93;;;;;;;;;;5059396;28;20446;-91
2021/09/26 01:18:16;;;;;;;20.03;19.03;;;;;;;;;;5076385;28;20461;-92
2021/09/26 01:20:49;;;;;;;19.60;18.57;;;;;;;;;;5076838;28;20430;-91
2021/09/26 01:23:23;;;;;;;18.83;17.93;;;;;;;;;;5058900;28;20495;-91
2021/09/26 01:25:56;;;;;;;19.60;18.60;;;;;;;;;;5076306;28;20411;-91
2021/09/26 01:28:34;;;;;;;20.97;19.77;;;;;;;;;;5076350;28;20442;-91
2021/09/26 01:31:06;;;;;;;20.10;19.00;;;;;;;;;;5076364;28;20454;-91
2021/09/26 01:33:35;;;;;;;19.93;18.93;;;;;;;;;;5076468;28;20439;-92
2021/09/26 01:36:06;;;;;;;20.07;18.77;;;;;;;;;;5076763;28;20438;-91
2021/09/26 01:38:36;;;;;;;20.27;19.17;;;;;;;;;;5076230;28;20632;-92
2021/09/26 01:41:08;;;;;;;20.50;19.30;;;;;;;;;;5076953;28;20526;-91
2021/09/26 01:43:39;;;;;;;21.50;20.40;;;;;;;;;;5076411;28;20420;-91
2021/09/26 01:46:08;;;;;;;20.90;19.80;;;;;;;;;;5076503;28;20430;-91
2021/09/26 01:48:38;;;;;;;22.27;21.07;;;;;;;;;;5075926;28;20415;-91
2021/09/26 01:51:06;;;;;;;21.37;20.17;;;;;;;;;;5075342;28;20537;-91
2021/09/26 01:53:36;;;;;;;21.83;20.43;;;;;;;;;;5076149;28;20408;-92
2021/09/26 01:56:03;;;;;;;21.73;20.53;;;;;;;;;;5075889;28;20442;-91
2021/09/26 01:58:31;;;;;;;21.07;19.97;;;;;;;;;;5076333;28;20482;-91
2021/09/26 02:00:58;;;;;;;20.70;19.50;;;;;;;;;;5075968;28;20412;-91
2021/09/26 02:03:27;;;;;;;22.60;21.10;;;;;;;;;;5058201;28;20458;-91
2021/09/26 02:05:55;;;;;;;21.87;20.57;;;;;;;;;;5076411;28;20442;-92
2021/09/26 02:08:23;;;;;;;21.90;20.60;;;;;;;;;;5076637;28;20777;-91
2021/09/26 02:10:50;;;;;;;20.17;19.07;;;;;;;;;;5075508;28;20941;-91
2021/09/26 02:13:18;;;;;;;21.47;20.07;;;;;;;;;;5075728;28;20416;-91
2021/09/26 02:15:46;;;;;;;20.67;19.57;;;;;;;;;;5075811;28;20902;-91
2021/09/26 02:18:14;;;;;;;21.37;20.13;;;;;;;;;;5076400;28;20507;-91
2021/09/26 02:20:44;;;;;;;20.63;19.53;;;;;;;;;;5075606;28;20442;-91
2021/09/26 02:23:11;;;;;;;20.30;19.30;;;;;;;;;;5075658;28;20421;-91
2021/09/26 02:25:39;;;;;;;20.80;19.70;;;;;;;;;;5075171;28;20432;-91
2021/09/26 02:28:07;;;;;;;20.17;19.00;;;;;;;;;;5076084;28;20479;-92
2021/09/26 02:30:35;;;;;;;19.57;18.63;;;;;;;;;;5075200;28;20499;-91
2021/09/26 02:33:02;;;;;;;20.80;19.77;;;;;;;;;;5074806;28;20443;-91
2021/09/26 02:35:30;;;;;;;21.27;19.97;;;;;;;;;;5075053;28;20440;-91
2021/09/26 02:37:59;;;;;;;21.37;20.23;;;;;;;;;;5075349;28;20541;-91
2021/09/26 02:40:27;;;;;;;20.97;19.87;;;;;;;;;;5075320;28;20434;-91
2021/09/26 02:43:01;;;;;;;20.90;19.80;;;;;;;;;;5057389;28;20455;-91
2021/09/26 02:45:33;;;;;;;22.60;21.30;;;;;;;;;;5075249;28;20832;-91
2021/09/26 02:48:03;;;;;;;21.33;20.23;;;;;;;;;;5075073;28;20847;-91
2021/09/26 02:50:31;;;;;;;21.63;20.33;;;;;;;;;;5074771;28;20438;-91
2021/09/26 02:53:00;;;;;;;20.40;19.37;;;;;;;;;;5074950;28;20453;-91
2021/09/26 02:55:28;;;;;;;25.27;20.30;;;;;;;;;;5057341;28;20460;-92
2021/09/26 02:57:55;;;;;;;21.40;20.20;;;;;;;;;;5074793;28;20458;-92
2021/09/26 03:00:31;;;;;;;20.77;19.73;;;;;;;;;;5074547;28;20410;-91
2021/09/26 03:03:04;;;;;;;21.10;20.00;;;;;;;;;;5073920;28;20506;-92
2021/09/26 03:05:32;;;;;;;22.17;20.83;;;;;;;;;;5074404;28;20450;-91
2021/09/26 03:08:01;;;;;;;21.57;20.00;;;;;;;;;;5057365;28;20465;-91
2021/09/26 03:10:28;;;;;;;21.50;20.10;;;;;;;;;;5074403;28;20412;-91
2021/09/26 03:12:56;;;;;;;20.97;19.77;;;;;;;;;;5074764;28;20457;-91
2021/09/26 03:15:23;;;;;;;20.73;19.40;;;;;;;;;;5075409;28;20413;-91
2021/09/26 03:17:51;;;;;;;20.53;19.33;;;;;;;;;;5074299;28;20409;-92
2021/09/26 03:20:18;;;;;;;20.93;19.73;;;;;;;;;;5074648;28;20404;-91
2021/09/26 03:22:46;;;;;;;20.70;19.50;;;;;;;;;;5074454;28;20928;-91
2021/09/26 03:25:16;;;;;;;20.30;19.30;;;;;;;;;;5074303;28;20446;-91
2021/09/26 03:27:43;;;;;;;20.40;19.30;;;;;;;;;;5074741;28;20434;-91
2021/09/26 03:30:11;;;;;;;20.00;18.97;;;;;;;;;;5074096;28;20433;-91
2021/09/26 03:32:39;;;;;;;20.10;18.93;;;;;;;;;;5074233;28;20431;-91
2021/09/26 03:35:07;;;;;;;20.43;19.43;;;;;;;;;;5074430;28;20442;-91
2021/09/26 03:37:35;;;;;;;21.43;20.23;;;;;;;;;;5056412;28;20470;-92
2021/09/26 03:40:03;;;;;;;20.60;19.50;;;;;;;;;;5040278;28;20484;-92
2021/09/26 03:42:32;;;;;;;19.90;18.90;;;;;;;;;;5073990;28;20443;-92
2021/09/26 03:45:00;;;;;;;20.93;19.73;;;;;;;;;;5074780;28;20404;-91
2021/09/26 03:47:28;;;;;;;21.00;19.80;;;;;;;;;;5074191;28;20434;-91
2021/09/26 03:49:55;;;;;;;20.70;19.50;;;;;;;;;;5074294;28;20479;-91
2021/09/26 03:52:22;;;;;;;23.00;21.70;;;;;;;;;;5056519;28;20416;-92
2021/09/26 03:54:51;;;;;;;21.20;19.90;;;;;;;;;;5074128;28;20525;-91
2021/09/26 03:57:19;;;;;;;20.30;19.20;;;;;;;;;;5073894;28;20432;-91
2021/09/26 03:59:48;;;;;;;21.10;19.90;;;;;;;;;;5056688;28;20464;-91
2021/09/26 04:02:15;;;;;;;20.57;19.20;;;;;;;;;;5074119;28;20417;-91
2021/09/26 04:04:43;;;;;;;20.57;19.27;;;;;;;;;;5074133;28;20438;-91
2021/09/26 04:07:10;;;;;;;20.30;19.10;;;;;;;;;;5074293;28;20496;-91
2021/09/26 04:09:37;;;;;;;19.80;18.70;;;;;;;;;;5074306;28;20438;-91
2021/09/26 04:12:05;;;;;;;20.63;19.50;;;;;;;;;;5074313;28;20441;-91
2021/09/26 04:14:33;;;;;;;19.97;18.87;;;;;;;;;;5075954;28;20412;-91
2021/09/26 04:17:02;;;;;;;19.73;18.73;;;;;;;;;;5078070;28;20920;-91
2021/09/26 04:19:29;;;;;;;19.60;18.50;;;;;;;;;;5077932;28;20455;-91
2021/09/26 04:21:56;;;;;;;19.83;18.43;;;;;;;;;;5077420;28;20438;-91
2021/09/26 04:24:24;;;;;;;20.33;19.23;;;;;;;;;;5077918;28;20434;-92
2021/09/26 04:26:51;;;;;;;20.03;19.00;;;;;;;;;;5077466;28;20886;-91
2021/09/26 04:29:18;;;;;;;19.37;18.47;;;;;;;;;;5060168;28;20450;-92
2021/09/26 04:31:46;;;;;;;19.73;18.53;;;;;;;;;;5077839;28;20425;-91
2021/09/26 04:34:15;;;;;;;19.50;18.40;;;;;;;;;;5077792;28;20421;-92
2021/09/26 04:36:42;;;;;;;19.50;18.40;;;;;;;;;;5077233;28;20448;-91
2021/09/26 04:39:10;;;;;;;19.67;18.67;;;;;;;;;;5077255;28;20467;-92
2021/09/26 04:41:37;;;;;;;20.87;19.40;;;;;;;;;;5077119;28;20466;-91
2021/09/26 04:44:05;;;;;;;21.20;19.90;;;;;;;;;;5077495;28;20438;-91
2021/09/26 04:46:32;;;;;;;20.10;18.93;;;;;;;;;;5059667;28;20898;-92
2021/09/26 04:48:59;;;;;;;19.07;18.03;;;;;;;;;;5077764;28;20921;-91
2021/09/26 04:51:28;;;;;;;19.93;18.93;;;;;;;;;;5077860;28;20783;-91
2021/09/26 04:53:56;;;;;;;20.00;18.90;;;;;;;;;;5078107;28;20434;-92
2021/09/26 04:56:23;;;;;;;19.27;18.27;;;;;;;;;;5077370;28;20464;-92
2021/09/26 04:58:50;;;;;;;19.33;18.30;;;;;;;;;;5076917;28;20459;-91
2021/09/26 05:01:18;;;;;;;19.97;18.53;;;;;;;;;;5077115;28;20443;-91
2021/09/26 05:03:46;;;;;;;20.20;19.20;;;;;;;;;;5077042;28;20433;-91
2021/09/26 05:06:14;;;;;;;19.10;18.10;;;;;;;;;;5059300;28;20470;-92
2021/09/26 05:08:43;;;;;;;19.50;18.47;;;;;;;;;;5076999;28;20438;-91
2021/09/26 05:11:11;;;;;;;19.60;18.57;;;;;;;;;;5059248;28;20870;-92
2021/09/26 05:13:38;;;;;;;18.80;17.90;;;;;;;;;;5076944;28;20439;-92
2021/09/26 05:16:06;;;;;;;19.40;18.40;;;;;;;;;;5077352;28;20830;-92
2021/09/26 05:18:33;;;;;;;19.37;18.30;;;;;;;;;;5076524;28;20406;-92
2021/09/26 05:21:00;;;;;;;20.23;18.80;;;;;;;;;;5076572;28;20447;-91
2021/09/26 05:23:28;;;;;;;19.43;18.23;;;;;;;;;;5076972;28;20436;-91
2021/09/26 05:25:57;;;;;;;20.33;19.07;;;;;;;;;;5075640;28;20450;-91
2021/09/26 05:28:25;;;;;;;21.00;19.80;;;;;;;;;;5076689;28;20797;-92
2021/09/26 05:30:52;;;;;;;20.47;19.27;;;;;;;;;;5076401;28;20526;-91
2021/09/26 05:33:19;;;;;;;21.17;19.97;;;;;;;;;;5076878;28;20461;-91
2021/09/26 05:35:48;;;;;;;20.00;18.70;;;;;;;;;;5076565;28;20816;-91
2021/09/26 05:38:16;;;;;;;19.40;18.40;;;;;;;;;;5076179;28;20824;-92
2021/09/26 05:40:43;;;;;;;19.20;18.10;;;;;;;;;;5058439;28;20486;-92
2021/09/26 05:43:12;;;;;;;20.27;19.17;;;;;;;;;;5076505;28;20410;-93
2021/09/26 05:45:39;;;;;;;19.90;18.90;;;;;;;;;;5076403;28;20923;-92
2021/09/26 05:48:07;;;;;;;20.80;19.50;;;;;;;;;;5076297;28;20442;-92
2021/09/26 05:50:34;;;;;;;19.40;18.20;;;;;;;;;;5076099;28;20447;-91
2021/09/26 05:53:02;;;;;;;21.30;19.80;;;;;;;;;;5076285;28;20776;-92
2021/09/26 05:55:29;;;;;;;20.23;19.10;;;;;;;;;;5076065;28;20439;-92
2021/09/26 05:57:57;;;;;;;19.50;18.50;;;;;;;;;;5076534;28;20424;-92
2021/09/26 06:00:26;;;;;;;19.70;18.60;;;;;;;;;;5075823;28;20477;-92
2021/09/26 06:02:53;;;;;;;21.27;20.07;;;;;;;;;;5076404;28;20425;-92
2021/09/26 06:05:21;;;;;;;20.73;19.63;;;;;;;;;;5075788;28;20424;-91
2021/09/26 06:07:50;;;;;;;22.10;20.80;;;;;;;;;;5076245;28;20417;-91
2021/09/26 06:10:17;;;;;;;21.07;19.87;;;;;;;;;;5075750;28;20462;-91
2021/09/26 06:12:45;;;;;;;22.10;20.83;;;;;;;;;;5075851;28;20997;-91
2021/09/26 06:15:13;;;;;;;21.33;20.10;;;;;;;;;;5075571;28;20448;-91
2021/09/26 06:17:42;;;;;;;20.47;19.37;;;;;;;;;;5075374;28;20441;-91
2021/09/26 06:20:10;;;;;;;22.10;20.90;;;;;;;;;;5075212;28;20464;-90
2021/09/26 06:22:37;;;;;;;20.20;18.70;;;;;;;;;;5075559;28;20940;-90
2021/09/26 06:25:05;;;;;;;21.07;19.87;;;;;;;;;;5058145;28;20492;-91
2021/09/26 06:27:33;;;;;;;20.30;19.20;;;;;;;;;;5075126;28;20426;-91
2021/09/26 06:30:00;;;;;;;20.10;18.97;;;;;;;;;;5075450;28;20420;-91
2021/09/26 06:32:31;;;;;;;19.60;18.50;;;;;;;;;;5075736;28;20451;-91
2021/09/26 06:35:00;;;;;;;19.53;18.47;;;;;;;;;;5074924;28;20434;-91
2021/09/26 06:37:28;;;;;;;19.53;18.43;;;;;;;;;;5074823;28;20436;-92
2021/09/26 06:39:56;;;;;;;19.40;18.30;;;;;;;;;;5074863;28;20475;-92
2021/09/26 06:42:23;;;;;;;20.00;18.60;;;;;;;;;;5074967;28;20451;-93
2021/09/26 06:44:51;;;;;;;19.23;18.13;;;;;;;;;;5076638;28;20450;-94
2021/09/26 06:47:18;;;;;;;19.43;18.30;;;;;;;;;;5076342;28;20430;-94
2021/09/26 06:49:45;;;;;;;19.30;18.10;;;;;;;;;;5075111;28;20432;-94
2021/09/26 06:52:14;;;;;;;19.40;18.30;;;;;;;;;;5075089;28;20737;-93
2021/09/26 06:54:43;;;;;;;19.57;18.43;;;;;;;;;;5075077;28;20420;-93
2021/09/26 06:57:10;;;;;;;18.37;17.37;;;;;;;;;;5074780;28;20442;-93
2021/09/26 06:59:38;;;;;;;19.63;18.57;;;;;;;;;;5075210;28;20880;-94
2021/09/26 07:02:06;;;;;;;192.33;140.27;;;;;;;;;;5056677;28;20789;-93
2021/09/26 07:04:34;;;;;;;19.50;18.50;;;;;;;;;;5074863;28;20820;-93
2021/09/26 07:07:01;;;;;;;141.32;94.18;;;;;;;;;;5057607;28;20435;-93
2021/09/26 07:09:30;;;;;;;19.80;18.70;;;;;;;;;;5075225;28;20210;-93
2021/09/26 07:11:57;;;;;;;20.20;19.03;;;;;;;;;;5074722;28;20454;-93
2021/09/26 07:14:26;;;;;;;19.13;18.13;;;;;;;;;;5075287;28;20427;-92
2021/09/26 07:16:53;;;;;;;168.00;151.30;;;;;;;;;;5057270;28;20977;-93
2021/09/26 07:19:21;;;;;;;19.23;18.23;;;;;;;;;;5074571;28;20486;-93
2021/09/26 07:21:48;;;;;;;18.73;17.73;;;;;;;;;;5074531;28;20418;-94
2021/09/26 07:24:16;;;;;;;19.27;18.17;;;;;;;;;;5075066;28;20797;-94
2021/09/26 07:26:45;;;;;;;19.50;18.40;;;;;;;;;;5073909;28;20453;-92
2021/09/26 07:29:12;;;;;;;20.30;18.80;;;;;;;;;;5074973;28;20438;-93
2021/09/26 07:31:39;;;;;;;19.27;18.27;;;;;;;;;;5074952;28;20470;-93
2021/09/26 07:34:07;;;;;;;20.43;19.33;;;;;;;;;;5056812;28;20455;-93
2021/09/26 07:36:35;;;;;;;19.90;18.80;;;;;;;;;;5057002;28;20813;-93
2021/09/26 07:39:02;;;;;;;20.20;18.83;;;;;;;;;;5074449;28;20965;-95
2021/09/26 07:41:29;;;;;;;19.97;18.87;;;;;;;;;;5057449;28;20876;-93
2021/09/26 07:44:00;;;;;;;20.27;19.07;;;;;;;;;;5056729;28;20416;-94
2021/09/26 07:46:27;;;;;;;19.60;18.50;;;;;;;;;;5074118;28;20481;-94
2021/09/26 07:48:55;;;;;;;19.07;17.80;;;;;;;;;;5073424;28;20426;-96
2021/09/26 07:51:22;;;;;;;20.10;19.00;;;;;;;;;;5056818;28;20434;-95
2021/09/26 07:53:50;;;;;;;19.33;18.33;;;;;;;;;;5056866;28;20422;-96
2021/09/26 07:56:18;;;;;;;20.80;19.60;;;;;;;;;;5074057;28;20441;-95
2021/09/26 07:58:45;;;;;;;19.80;18.70;;;;;;;;;;5074493;28;20457;-95
2021/09/26 08:01:15;;;;;;;20.13;18.93;;;;;;;;;;5073790;28;20460;-96
2021/09/26 08:03:43;;;;;;;19.93;18.83;;;;;;;;;;5073782;28;20467;-95
2021/09/26 08:06:10;;;;;;;119.13;106.93;;;;;;;;;;5073927;28;20433;-94
2021/09/26 08:08:38;;;;;;;20.73;19.53;;;;;;;;;;5074288;28;20461;-94
2021/09/26 08:11:05;;;;;;;20.47;19.27;;;;;;;;;;5074662;28;20458;-93
2021/09/26 08:13:33;;;;;;;21.20;19.80;;;;;;;;;;5074629;28;20802;-93
2021/09/26 08:16:00;;;;;;;21.20;19.90;;;;;;;;;;5074077;28;20456;-93
2021/09/26 08:18:29;;;;;;;21.27;19.87;;;;;;;;;;5074218;28;20444;-93
2021/09/26 08:20:57;;;;;;;20.20;19.03;;;;;;;;;;5073933;28;20483;-93
2021/09/26 08:23:24;;;;;;;19.73;18.73;;;;;;;;;;5040138;28;20451;-93
2021/09/26 08:25:52;;;;;;;115.83;104.40;;;;;;;;;;5056445;28;20440;-92
2021/09/26 08:28:20;;;;;;;20.50;19.40;;;;;;;;;;5073573;28;20864;-92
2021/09/26 08:30:47;;;;;;;20.63;19.53;;;;;;;;;;5074452;28;20426;-92
2021/09/26 08:33:14;;;;;;;36.63;33.53;;;;;;;;;;5074259;28;20833;-86
2021/09/26 08:35:43;;;;;;;20.70;19.60;;;;;;;;;;5073688;28;20420;-89
2021/09/26 08:38:11;;;;;;;448.35;315.45;;;;;;;;;;5073194;28;20491;-92
2021/09/26 08:40:38;;;;;;;391.40;329.27;;;;;;;;;;5073425;28;20702;-86
2021/09/26 08:43:06;;;;;;;475.33;423.95;;;;;;;;;;5073564;28;20552;-88
2021/09/26 08:45:37;;;;;;;480.35;396.52;;;;;;;;;;5073613;28;20185;-89
2021/09/26 08:48:05;;;;;;;486.52;407.85;;;;;;;;;;5073624;28;20204;-88
2021/09/26 08:50:32;;;;;;;470.25;377.67;;;;;;;;;;5073877;28;20190;-88
2021/09/26 08:53:01;;;;;;;482.70;417.00;;;;;;;;;;5073298;28;20193;-88
2021/09/26 08:55:29;;;;;;;489.20;433.02;;;;;;;;;;5073193;28;20200;-88
2021/09/26 08:57:57;;;;;;;495.87;434.70;;;;;;;;;;5073281;28;20194;-88
2021/09/26 09:00:25;;;;;;;492.43;436.70;;;;;;;;;;5073480;28;20487;-88
2021/09/26 09:02:53;;;;;;;503.60;433.37;;;;;;;;;;5077073;28;20474;-89
2021/09/26 09:05:30;;;;;;;498.33;444.07;;;;;;;;;;5076715;28;20439;-89
2021/09/26 09:08:18;;;;;;;531.23;475.27;;;;;;;;;;5077076;28;20445;-88
2021/09/26 09:10:47;;;;;;;499.27;444.47;;;;;;;;;;5059096;28;20506;-89
2021/09/26 09:13:17;;;;;;;492.80;437.03;;;;;;;;;;5076594;28;20960;-89
2021/09/26 09:15:52;;;;;;;453.30;407.60;;;;;;;;;;5077109;28;20439;-89
2021/09/26 09:18:19;;;;;;;446.87;399.93;;;;;;;;;;5077165;28;20431;-87
2021/09/26 09:20:47;;;;;;;462.37;419.43;;;;;;;;;;5058631;28;20490;-86
2021/09/26 09:23:17;;;;;;;427.03;385.57;;;;;;;;;;5076316;28;20431;-88
2021/09/26 09:25:46;;;;;;;502.73;451.73;;;;;;;;;;5076830;28;20448;-87
2021/09/26 09:28:15;;;;;;;466.00;420.70;;;;;;;;;;5076732;28;20449;-89
2021/09/26 09:30:44;;;;;;;478.90;434.90;;;;;;;;;;5076311;28;20443;-91
2021/09/26 09:33:12;;;;;;;464.73;417.37;;;;;;;;;;5076311;28;20458;-86
2021/09/26 09:35:40;;;;;;;516.53;465.43;;;;;;;;;;5076214;28;20436;-87
2021/09/26 09:38:07;;;;;;;492.03;442.97;;;;;;;;;;5076170;28;20484;-87
2021/09/26 09:40:37;;;;;;;490.80;443.23;;;;;;;;;;5075169;28;20480;-87
2021/09/26 09:43:05;;;;;;;492.60;448.33;;;;;;;;;;5076368;28;20436;-88
2021/09/26 09:45:33;;;;;;;513.93;468.37;;;;;;;;;;5058601;28;20495;-88
2021/09/26 09:48:02;;;;;;;531.37;486.40;;;;;;;;;;5076150;28;20447;-88
2021/09/26 09:50:31;;;;;;;524.77;480.87;;;;;;;;;;5059187;28;20921;-88
2021/09/26 09:52:59;;;;;;;534.43;491.27;;;;;;;;;;5075763;28;20438;-88
2021/09/26 09:55:27;;;;;;;492.17;452.00;;;;;;;;;;5076065;28;20432;-88
2021/09/26 09:58:12;;;;;;;533.63;491.73;;;;;;;;;;5058173;28;20471;-88
2021/09/26 10:00:47;;;;;;;530.60;498.90;;;;;;;;;;5075818;28;20509;-87
2021/09/26 10:03:29;;;;;;;546.00;502.77;;;;;;;;;;5075905;28;20471;-88
2021/09/26 10:05:57;;;;;;;524.13;481.67;;;;;;;;;;5075621;28;20440;-87
2021/09/26 10:08:33;;;;;;;536.07;495.47;;;;;;;;;;5076150;28;20493;-88
2021/09/26 10:11:06;;;;;;;525.37;494.87;;;;;;;;;;5075406;28;20990;-88
2021/09/26 10:13:36;;;;;;;495.87;468.63;;;;;;;;;;5075299;28;20458;-88
2021/09/26 10:16:05;;;;;;;449.23;428.83;;;;;;;;;;5075807;28;20476;-88
2021/09/26 10:18:32;;;;;;;303.60;289.97;;;;;;;;;;5075620;28;20443;-88
2021/09/26 10:21:01;;;;;;;240.73;231.13;;;;;;;;;;5075484;28;20494;-88
2021/09/26 10:23:28;;;;;;;59.40;56.70;;;;;;;;;;5075716;28;20477;-88
2021/09/26 10:25:56;;;;;;;397.70;379.77;;;;;;;;;;5075503;28;20439;-87
2021/09/26 10:28:27;;;;;;;301.90;290.30;;;;;;;;;;5075323;28;20463;-87
2021/09/26 10:30:56;;;;;;;23.77;22.27;;;;;;;;;;5074937;28;20431;-87
2021/09/26 10:33:24;;;;;;;257.83;246.97;;;;;;;;;;5075668;28;20452;-87
2021/09/26 10:35:52;;;;;;;271.67;260.77;;;;;;;;;;5074947;28;20423;-88
2021/09/26 10:38:20;;;;;;;202.93;195.00;;;;;;;;;;5074639;28;20489;-87
2021/09/26 10:40:48;;;;;;;486.47;460.07;;;;;;;;;;5074483;28;20991;-86
2021/09/26 10:43:19;;;;;;;472.30;438.50;;;;;;;;;;5057496;28;20455;-87
2021/09/26 10:45:47;;;;;;;23.67;21.97;;;;;;;;;;5074922;28;20444;-87
2021/09/26 10:48:16;;;;;;;24.67;23.20;;;;;;;;;;5075399;28;20433;-87
2021/09/26 10:50:44;;;;;;;22.50;21.00;;;;;;;;;;5075440;28;20582;-88
2021/09/26 10:53:12;;;;;;;24.70;23.17;;;;;;;;;;5074924;28;20455;-88
2021/09/26 10:55:40;;;;;;;25.43;23.63;;;;;;;;;;5074840;28;20412;-88
2021/09/26 10:58:12;;;;;;;25.50;23.57;;;;;;;;;;5074891;28;20491;-88
2021/09/26 11:00:41;;;;;;;24.33;22.83;;;;;;;;;;5074790;28;20472;-88
2021/09/26 11:03:09;;;;;;;24.00;22.50;;;;;;;;;;5074521;28;20432;-88
2021/09/26 11:05:55;;;;;;;24.43;22.53;;;;;;;;;;5074672;28;20555;-88
2021/09/26 11:08:37;;;;;;;23.33;21.90;;;;;;;;;;5074219;28;20475;-87
2021/09/26 11:11:05;;;;;;;23.47;21.97;;;;;;;;;;5074106;28;20452;-87
2021/09/26 11:13:33;;;;;;;22.13;20.83;;;;;;;;;;5074562;28;20784;-87
2021/09/26 11:16:08;;;;;;;24.90;23.40;;;;;;;;;;5074640;28;20447;-88
2021/09/26 11:18:49;;;;;;;23.10;21.60;;;;;;;;;;5074287;28;20449;-87
2021/09/26 11:21:37;;;;;;;24.50;22.60;;;;;;;;;;5074706;28;20541;-87
2021/09/26 11:24:07;;;;;;;24.27;22.70;;;;;;;;;;5032318;28;20456;-88
2021/09/26 11:26:49;;;;;;;24.00;22.50;;;;;;;;;;5074307;28;20439;-87
2021/09/26 11:29:17;;;;;;;23.50;21.80;;;;;;;;;;5073507;28;20452;-88
2021/09/26 11:31:44;;;;;;;102.77;60.53;;;;;;;;;;5074327;28;20426;-87
2021/09/26 11:34:12;;;;;;;61.20;40.30;;;;;;;;;;5074486;28;20443;-88
2021/09/26 11:36:53;;;;;;;23.97;22.43;;;;;;;;;;5074611;28;20447;-87
2021/09/26 11:39:28;;;;;;;151.27;142.90;;;;;;;;;;5074107;28;20480;-87
2021/09/26 11:41:56;;;;;;;35.73;33.57;;;;;;;;;;5074014;28;20924;-87
2021/09/26 11:44:23;;;;;;;22.60;21.10;;;;;;;;;;5074351;28;20434;-87
2021/09/26 11:46:51;;;;;;;22.20;20.90;;;;;;;;;;5074064;28;20461;-88
2021/09/26 11:49:19;;;;;;;23.20;21.70;;;;;;;;;;5073861;28;20419;-87
2021/09/26 11:51:48;;;;;;;23.03;21.63;;;;;;;;;;5074082;28;20448;-86
2021/09/26 11:54:16;;;;;;;60.07;57.37;;;;;;;;;;5074967;28;20520;-87
2021/09/26 11:56:45;;;;;;;23.10;21.70;;;;;;;;;;5074155;28;20430;-87
2021/09/26 11:59:13;;;;;;;382.03;364.30;;;;;;;;;;5073985;28;20453;-87
2021/09/26 12:01:41;;;;;;;23.83;22.33;;;;;;;;;;5073715;28;20459;-87
2021/09/26 12:04:13;;;;;;;22.40;21.10;;;;;;;;;;5073855;28;20852;-87
2021/09/26 12:06:41;;;;;;;22.93;21.53;;;;;;;;;;5074071;28;20449;-87
2021/09/26 12:09:09;;;;;;;22.20;20.93;;;;;;;;;;5074011;28;20444;-88
2021/09/26 12:11:48;;;;;;;24.43;22.60;;;;;;;;;;5056097;28;20437;-87
2021/09/26 12:14:22;;;;;;;22.47;21.07;;;;;;;;;;5073713;28;20407;-87
2021/09/26 12:16:49;;;;;;;23.50;21.90;;;;;;;;;;5073729;28;20881;-87
2021/09/26 12:19:17;;;;;;;22.20;20.80;;;;;;;;;;5073837;28;20442;-87
2021/09/26 12:21:45;;;;;;;21.90;20.60;;;;;;;;;;5073469;28;20498;-87
2021/09/26 12:24:16;;;;;;;23.60;22.10;;;;;;;;;;5074057;28;20496;-87
2021/09/26 12:26:44;;;;;;;23.33;21.80;;;;;;;;;;5073421;28;20452;-86
2021/09/26 12:29:14;;;;;;;23.77;22.27;;;;;;;;;;5074274;28;20847;-87
2021/09/26 12:31:44;;;;;;;23.10;21.60;;;;;;;;;;5073548;28;20970;-87
2021/09/26 12:34:12;;;;;;;23.00;21.50;;;;;;;;;;5073573;28;20452;-87
2021/09/26 12:36:41;;;;;;;23.13;21.30;;;;;;;;;;5059939;28;20471;-88
2021/09/26 12:39:11;;;;;;;22.80;21.33;;;;;;;;;;5077536;28;20853;-88
2021/09/26 12:41:41;;;;;;;23.37;21.90;;;;;;;;;;5077187;28;20520;-88
2021/09/26 12:44:10;;;;;;;22.57;21.27;;;;;;;;;;5077364;28;20533;-87
2021/09/26 12:46:39;;;;;;;24.10;22.40;;;;;;;;;;5078040;28;20840;-88
2021/09/26 12:49:07;;;;;;;23.20;21.60;;;;;;;;;;5077232;28;20516;-86
2021/09/26 12:51:47;;;;;;;23.60;22.20;;;;;;;;;;5077545;28;20953;-88
2021/09/26 12:54:14;;;;;;;23.30;21.70;;;;;;;;;;5077166;28;20786;-88
2021/09/26 12:56:44;;;;;;;23.43;21.77;;;;;;;;;;5077248;28;20444;-88
2021/09/26 12:59:20;;;;;;;23.07;21.47;;;;;;;;;;5059056;28;20464;-88
2021/09/26 13:01:58;;;;;;;22.93;21.53;;;;;;;;;;5076798;28;20447;-88
2021/09/26 13:04:26;;;;;;;24.67;23.17;;;;;;;;;;5076734;28;20945;-88
2021/09/26 13:06:54;;;;;;;24.70;22.97;;;;;;;;;;5076812;28;20449;-88
2021/09/26 13:09:23;;;;;;;24.00;22.40;;;;;;;;;;5076987;28;20437;-88
2021/09/26 13:11:52;;;;;;;24.20;22.30;;;;;;;;;;5076660;28;20875;-88
2021/09/26 13:14:31;;;;;;;23.73;22.30;;;;;;;;;;5077140;28;20437;-88
2021/09/26 13:17:18;;;;;;;22.60;21.20;;;;;;;;;;5076965;28;20584;-88
2021/09/26 13:19:47;;;;;;;152.80;146.53;;;;;;;;;;5076631;28;20437;-88
2021/09/26 13:22:27;;;;;;;367.97;349.83;;;;;;;;;;5058624;28;20492;-88
2021/09/26 13:24:55;;;;;;;620.27;579.33;;;;;;;;;;5076464;28;20439;-88
2021/09/26 13:27:33;;;;;;;725.77;672.67;;;;;;;;;;5076606;28;20433;-88
2021/09/26 13:30:02;;;;;;;746.33;692.30;;;;;;;;;;5077291;28;20780;-88
2021/09/26 13:32:31;;;;;;;732.93;679.27;;;;;;;;;;5076844;28;20895;-85
2021/09/26 13:35:05;;;;;;;646.83;600.23;;;;;;;;;;5076418;28;20494;-89
2021/09/26 13:37:33;;;;;;;757.00;699.30;;;;;;;;;;5076408;28;20487;-89
2021/09/26 13:40:02;;;;;;;757.77;701.53;;;;;;;;;;5076451;28;20426;-89
2021/09/26 13:42:33;;;;;;;746.57;693.50;;;;;;;;;;5058527;28;20489;-88
2021/09/26 13:45:02;;;;;;;712.90;660.53;;;;;;;;;;5058395;28;20438;-88
2021/09/26 13:47:30;;;;;;;752.40;694.63;;;;;;;;;;5074880;28;20457;-88
2021/09/26 13:50:00;;;;;;;762.37;705.40;;;;;;;;;;5076372;28;20430;-89
2021/09/26 13:52:28;;;;;;;715.67;661.83;;;;;;;;;;5076064;28;20503;-89
2021/09/26 13:54:56;;;;;;;759.37;703.40;;;;;;;;;;5075876;28;20457;-89
2021/09/26 13:57:24;;;;;;;689.87;645.87;;;;;;;;;;5075716;28;20947;-88
2021/09/26 13:59:53;;;;;;;732.30;681.57;;;;;;;;;;5075945;28;20457;-87
2021/09/26 14:02:22;;;;;;;622.63;594.90;;;;;;;;;;5075780;28;20829;-87
2021/09/26 14:04:49;;;;;;;657.20;626.83;;;;;;;;;;5075769;28;20941;-94
2021/09/26 14:07:17;;;;;;;650.30;620.03;;;;;;;;;;5076419;28;20847;-88
2021/09/26 14:09:44;;;;;;;653.30;618.67;;;;;;;;;;5075406;28;20436;-81
2021/09/26 14:12:13;;;;;;;671.10;636.27;;;;;;;;;;5074804;28;20408;-83
2021/09/26 14:14:41;;;;;;;658.63;626.70;;;;;;;;;;5074842;28;20491;-83
2021/09/26 14:17:10;;;;;;;734.00;696.47;;;;;;;;;;5075345;28;20423;-85
2021/09/26 14:19:38;;;;;;;723.20;686.67;;;;;;;;;;5075231;28;20443;-84
2021/09/26 14:22:06;;;;;;;620.33;591.40;;;;;;;;;;5075028;28;20484;-84